sensor_id;sensor_type;location;lat;lon;timestamp;P1;durP1;ratioP1;P2;durP2;ratioP2
19199;SDS011;9732;52.498;5.408;2023-05-19T00:00:34;0.20;;;0.20;;
19199;SDS011;9732;52.498;5.408;2023-05-19T00:03:02;0.20;;;0.20;;
19199;SDS011;9732;52.498;5.408;2023-05-19T00:05:30;0.20;;;0.20;;
19199;SDS011;9732;52.498;5.408;2023-05-19T00:07:57;0.20;;;0.20;;
19199;SDS011;9732;52.498;5.408;2023-05-19T00:10:25;0.10;;;0.10;;
19199;SDS011;9732;52.498;5.408;2023-05-19T00:12:55;0.20;;;0.20;;
19199;SDS011;9732;52.498;5.408;2023-05-19T00:15:22;0.10;;;0.10;;
19199;SDS011;9732;52.498;5.408;2023-05-19T00:17:51;0.20;;;0.20;;
19199;SDS011;9732;52.498;5.408;2023-05-19T00:20:19;0.20;;;0.20;;
19199;SDS011;9732;52.498;5.408;2023-05-19T00:22:46;0.20;;;0.20;;
19199;SDS011;9732;52.498;5.408;2023-05-19T00:25:13;0.20;;;0.20;;
19199;SDS011;9732;52.498;5.408;2023-05-19T00:27:39;0.20;;;0.20;;
19199;SDS011;9732;52.498;5.408;2023-05-19T00:30:07;0.20;;;0.20;;
19199;SDS011;9732;52.498;5.408;2023-05-19T00:32:34;0.20;;;0.20;;
19199;SDS011;9732;52.498;5.408;2023-05-19T00:35:02;0.20;;;0.20;;
19199;SDS011;9732;52.498;5.408;2023-05-19T00:37:29;0.20;;;0.20;;
19199;SDS011;9732;52.498;5.408;2023-05-19T00:39:56;0.20;;;0.20;;
19199;SDS011;9732;52.498;5.408;2023-05-19T00:42:23;0.20;;;0.20;;
19199;SDS011;9732;52.498;5.408;2023-05-19T00:44:51;0.20;;;0.20;;
19199;SDS011;9732;52.498;5.408;2023-05-19T00:47:18;0.20;;;0.20;;
19199;SDS011;9732;52.498;5.408;2023-05-19T00:49:44;0.22;;;0.22;;
19199;SDS011;9732;52.498;5.408;2023-05-19T00:52:12;0.20;;;0.20;;
19199;SDS011;9732;52.498;5.408;2023-05-19T00:54:39;0.20;;;0.20;;
19199;SDS011;9732;52.498;5.408;2023-05-19T00:57:06;0.20;;;0.20;;
19199;SDS011;9732;52.498;5.408;2023-05-19T00:59:33;0.30;;;0.30;;
19199;SDS011;9732;52.498;5.408;2023-05-19T01:02:00;0.20;;;0.20;;
19199;SDS011;9732;52.498;5.408;2023-05-19T01:04:27;0.20;;;0.20;;
19199;SDS011;9732;52.498;5.408;2023-05-19T01:06:58;0.20;;;0.20;;
19199;SDS011;9732;52.498;5.408;2023-05-19T01:09:27;0.20;;;0.20;;
19199;SDS011;9732;52.498;5.408;2023-05-19T01:11:54;0.20;;;0.20;;
19199;SDS011;9732;52.498;5.408;2023-05-19T01:14:21;0.20;;;0.20;;
19199;SDS011;9732;52.498;5.408;2023-05-19T01:16:49;0.20;;;0.20;;
19199;SDS011;9732;52.498;5.408;2023-05-19T01:19:27;0.20;;;0.20;;
19199;SDS011;9732;52.498;5.408;2023-05-19T01:22:17;0.20;;;0.20;;
19199;SDS011;9732;52.498;5.408;2023-05-19T01:25:00;0.20;;;0.20;;
19199;SDS011;9732;52.498;5.408;2023-05-19T01:30:42;0.20;;;0.20;;
19199;SDS011;9732;52.498;5.408;2023-05-19T01:33:12;0.20;;;0.20;;
19199;SDS011;9732;52.498;5.408;2023-05-19T01:35:41;0.20;;;0.20;;
19199;SDS011;9732;52.498;5.408;2023-05-19T01:38:09;0.20;;;0.20;;
19199;SDS011;9732;52.498;5.408;2023-05-19T01:40:38;0.20;;;0.20;;
19199;SDS011;9732;52.498;5.408;2023-05-19T01:43:07;0.30;;;0.30;;
19199;SDS011;9732;52.498;5.408;2023-05-19T01:45:35;0.20;;;0.20;;
19199;SDS011;9732;52.498;5.408;2023-05-19T01:48:04;0.20;;;0.20;;
19199;SDS011;9732;52.498;5.408;2023-05-19T01:50:32;0.30;;;0.30;;
19199;SDS011;9732;52.498;5.408;2023-05-19T01:52:59;0.20;;;0.20;;
19199;SDS011;9732;52.498;5.408;2023-05-19T01:55:26;0.20;;;0.20;;
19199;SDS011;9732;52.498;5.408;2023-05-19T01:57:56;0.20;;;0.20;;
19199;SDS011;9732;52.498;5.408;2023-05-19T02:00:33;0.20;;;0.20;;
19199;SDS011;9732;52.498;5.408;2023-05-19T02:03:13;0.20;;;0.20;;
19199;SDS011;9732;52.498;5.408;2023-05-19T02:05:52;0.20;;;0.20;;
19199;SDS011;9732;52.498;5.408;2023-05-19T02:08:26;0.20;;;0.20;;
19199;SDS011;9732;52.498;5.408;2023-05-19T02:10:59;0.20;;;0.20;;
19199;SDS011;9732;52.498;5.408;2023-05-19T02:13:28;0.30;;;0.30;;
19199;SDS011;9732;52.498;5.408;2023-05-19T02:15:58;0.20;;;0.20;;
19199;SDS011;9732;52.498;5.408;2023-05-19T02:18:30;0.25;;;0.25;;
19199;SDS011;9732;52.498;5.408;2023-05-19T02:20:59;0.30;;;0.30;;
19199;SDS011;9732;52.498;5.408;2023-05-19T02:23:26;0.30;;;0.30;;
19199;SDS011;9732;52.498;5.408;2023-05-19T02:25:52;0.30;;;0.30;;
19199;SDS011;9732;52.498;5.408;2023-05-19T02:28:19;0.30;;;0.30;;
19199;SDS011;9732;52.498;5.408;2023-05-19T02:30:46;0.30;;;0.30;;
19199;SDS011;9732;52.498;5.408;2023-05-19T02:33:12;0.20;;;0.20;;
19199;SDS011;9732;52.498;5.408;2023-05-19T02:35:40;0.20;;;0.20;;
19199;SDS011;9732;52.498;5.408;2023-05-19T02:38:07;0.20;;;0.20;;
19199;SDS011;9732;52.498;5.408;2023-05-19T02:40:34;0.30;;;0.30;;
19199;SDS011;9732;52.498;5.408;2023-05-19T02:43:00;0.20;;;0.20;;
19199;SDS011;9732;52.498;5.408;2023-05-19T02:45:27;0.30;;;0.30;;
19199;SDS011;9732;52.498;5.408;2023-05-19T02:47:54;0.20;;;0.20;;
19199;SDS011;9732;52.498;5.408;2023-05-19T02:50:20;0.20;;;0.20;;
19199;SDS011;9732;52.498;5.408;2023-05-19T02:52:48;0.20;;;0.20;;
19199;SDS011;9732;52.498;5.408;2023-05-19T02:55:17;0.20;;;0.20;;
19199;SDS011;9732;52.498;5.408;2023-05-19T02:57:44;0.20;;;0.20;;
19199;SDS011;9732;52.498;5.408;2023-05-19T03:00:11;0.20;;;0.20;;
19199;SDS011;9732;52.498;5.408;2023-05-19T03:02:41;0.20;;;0.20;;
19199;SDS011;9732;52.498;5.408;2023-05-19T03:05:10;0.20;;;0.20;;
19199;SDS011;9732;52.498;5.408;2023-05-19T03:07:38;0.20;;;0.20;;
19199;SDS011;9732;52.498;5.408;2023-05-19T03:10:07;0.20;;;0.20;;
19199;SDS011;9732;52.498;5.408;2023-05-19T03:12:34;0.20;;;0.20;;
19199;SDS011;9732;52.498;5.408;2023-05-19T03:15:03;0.20;;;0.20;;
19199;SDS011;9732;52.498;5.408;2023-05-19T03:17:31;0.30;;;0.30;;
19199;SDS011;9732;52.498;5.408;2023-05-19T03:19:59;0.27;;;0.27;;
19199;SDS011;9732;52.498;5.408;2023-05-19T03:22:29;0.30;;;0.30;;
19199;SDS011;9732;52.498;5.408;2023-05-19T03:24:56;0.30;;;0.30;;
19199;SDS011;9732;52.498;5.408;2023-05-19T03:27:24;0.20;;;0.20;;
19199;SDS011;9732;52.498;5.408;2023-05-19T03:29:53;0.20;;;0.20;;
19199;SDS011;9732;52.498;5.408;2023-05-19T03:32:23;0.20;;;0.20;;
19199;SDS011;9732;52.498;5.408;2023-05-19T03:34:50;0.20;;;0.20;;
19199;SDS011;9732;52.498;5.408;2023-05-19T03:37:16;0.20;;;0.20;;
19199;SDS011;9732;52.498;5.408;2023-05-19T03:39:43;0.20;;;0.20;;
19199;SDS011;9732;52.498;5.408;2023-05-19T03:42:10;0.20;;;0.20;;
19199;SDS011;9732;52.498;5.408;2023-05-19T03:44:38;0.20;;;0.20;;
19199;SDS011;9732;52.498;5.408;2023-05-19T03:47:05;0.20;;;0.20;;
19199;SDS011;9732;52.498;5.408;2023-05-19T03:49:34;0.20;;;0.20;;
19199;SDS011;9732;52.498;5.408;2023-05-19T03:52:02;0.20;;;0.20;;
19199;SDS011;9732;52.498;5.408;2023-05-19T03:54:29;0.20;;;0.20;;
19199;SDS011;9732;52.498;5.408;2023-05-19T03:56:57;0.20;;;0.20;;
19199;SDS011;9732;52.498;5.408;2023-05-19T03:59:23;0.20;;;0.20;;
19199;SDS011;9732;52.498;5.408;2023-05-19T04:01:52;0.20;;;0.20;;
19199;SDS011;9732;52.498;5.408;2023-05-19T04:04:19;0.20;;;0.20;;
19199;SDS011;9732;52.498;5.408;2023-05-19T04:06:46;0.20;;;0.20;;
19199;SDS011;9732;52.498;5.408;2023-05-19T04:09:14;0.30;;;0.30;;
19199;SDS011;9732;52.498;5.408;2023-05-19T04:11:41;0.20;;;0.20;;
19199;SDS011;9732;52.498;5.408;2023-05-19T04:14:09;0.20;;;0.20;;
19199;SDS011;9732;52.498;5.408;2023-05-19T04:16:36;0.20;;;0.20;;
19199;SDS011;9732;52.498;5.408;2023-05-19T04:19:04;0.20;;;0.20;;
19199;SDS011;9732;52.498;5.408;2023-05-19T04:21:32;0.20;;;0.20;;
19199;SDS011;9732;52.498;5.408;2023-05-19T04:23:59;0.20;;;0.20;;
19199;SDS011;9732;52.498;5.408;2023-05-19T04:26:26;0.20;;;0.20;;
19199;SDS011;9732;52.498;5.408;2023-05-19T04:28:55;0.20;;;0.20;;
19199;SDS011;9732;52.498;5.408;2023-05-19T04:31:22;0.20;;;0.20;;
19199;SDS011;9732;52.498;5.408;2023-05-19T04:33:52;0.20;;;0.20;;
19199;SDS011;9732;52.498;5.408;2023-05-19T04:36:20;0.20;;;0.20;;
19199;SDS011;9732;52.498;5.408;2023-05-19T04:38:47;0.20;;;0.20;;
19199;SDS011;9732;52.498;5.408;2023-05-19T04:41:18;0.20;;;0.20;;
19199;SDS011;9732;52.498;5.408;2023-05-19T04:43:46;0.20;;;0.20;;
19199;SDS011;9732;52.498;5.408;2023-05-19T04:46:17;0.20;;;0.20;;
19199;SDS011;9732;52.498;5.408;2023-05-19T04:48:48;0.20;;;0.20;;
19199;SDS011;9732;52.498;5.408;2023-05-19T04:51:15;0.20;;;0.20;;
19199;SDS011;9732;52.498;5.408;2023-05-19T04:53:44;0.30;;;0.30;;
19199;SDS011;9732;52.498;5.408;2023-05-19T04:56:11;0.20;;;0.20;;
19199;SDS011;9732;52.498;5.408;2023-05-19T04:58:39;0.20;;;0.20;;
19199;SDS011;9732;52.498;5.408;2023-05-19T05:01:08;0.20;;;0.20;;
19199;SDS011;9732;52.498;5.408;2023-05-19T05:03:38;0.17;;;0.17;;
19199;SDS011;9732;52.498;5.408;2023-05-19T05:06:04;0.30;;;0.30;;
19199;SDS011;9732;52.498;5.408;2023-05-19T05:08:31;0.20;;;0.20;;
19199;SDS011;9732;52.498;5.408;2023-05-19T05:11:01;0.30;;;0.30;;
19199;SDS011;9732;52.498;5.408;2023-05-19T05:13:29;0.20;;;0.20;;
19199;SDS011;9732;52.498;5.408;2023-05-19T05:15:56;0.20;;;0.20;;
19199;SDS011;9732;52.498;5.408;2023-05-19T05:18:24;0.20;;;0.20;;
19199;SDS011;9732;52.498;5.408;2023-05-19T05:20:51;0.20;;;0.20;;
19199;SDS011;9732;52.498;5.408;2023-05-19T05:23:19;0.20;;;0.20;;
19199;SDS011;9732;52.498;5.408;2023-05-19T05:25:46;0.30;;;0.30;;
19199;SDS011;9732;52.498;5.408;2023-05-19T05:28:15;0.20;;;0.20;;
19199;SDS011;9732;52.498;5.408;2023-05-19T05:30:43;0.20;;;0.20;;
19199;SDS011;9732;52.498;5.408;2023-05-19T05:33:13;0.30;;;0.30;;
19199;SDS011;9732;52.498;5.408;2023-05-19T05:35:41;0.20;;;0.20;;
19199;SDS011;9732;52.498;5.408;2023-05-19T05:38:08;0.20;;;0.20;;
19199;SDS011;9732;52.498;5.408;2023-05-19T05:40:36;0.20;;;0.20;;
19199;SDS011;9732;52.498;5.408;2023-05-19T05:43:02;0.20;;;0.20;;
19199;SDS011;9732;52.498;5.408;2023-05-19T05:45:30;0.20;;;0.20;;
19199;SDS011;9732;52.498;5.408;2023-05-19T05:47:58;0.20;;;0.20;;
19199;SDS011;9732;52.498;5.408;2023-05-19T05:50:27;0.20;;;0.20;;
19199;SDS011;9732;52.498;5.408;2023-05-19T05:52:55;0.20;;;0.20;;
19199;SDS011;9732;52.498;5.408;2023-05-19T05:55:27;0.20;;;0.20;;
19199;SDS011;9732;52.498;5.408;2023-05-19T05:57:55;0.20;;;0.20;;
19199;SDS011;9732;52.498;5.408;2023-05-19T06:00:26;0.20;;;0.20;;
19199;SDS011;9732;52.498;5.408;2023-05-19T06:02:55;0.20;;;0.20;;
19199;SDS011;9732;52.498;5.408;2023-05-19T06:05:23;0.20;;;0.20;;
19199;SDS011;9732;52.498;5.408;2023-05-19T06:07:49;0.20;;;0.20;;
19199;SDS011;9732;52.498;5.408;2023-05-19T06:10:16;0.20;;;0.20;;
19199;SDS011;9732;52.498;5.408;2023-05-19T06:12:44;0.20;;;0.20;;
19199;SDS011;9732;52.498;5.408;2023-05-19T06:15:11;0.20;;;0.20;;
19199;SDS011;9732;52.498;5.408;2023-05-19T06:17:39;0.20;;;0.20;;
19199;SDS011;9732;52.498;5.408;2023-05-19T06:20:08;0.20;;;0.20;;
19199;SDS011;9732;52.498;5.408;2023-05-19T06:22:37;0.13;;;0.13;;
19199;SDS011;9732;52.498;5.408;2023-05-19T06:25:04;0.20;;;0.20;;
19199;SDS011;9732;52.498;5.408;2023-05-19T06:27:33;0.20;;;0.20;;
19199;SDS011;9732;52.498;5.408;2023-05-19T06:30:02;0.20;;;0.20;;
19199;SDS011;9732;52.498;5.408;2023-05-19T06:32:30;0.20;;;0.20;;
19199;SDS011;9732;52.498;5.408;2023-05-19T06:34:57;0.20;;;0.20;;
19199;SDS011;9732;52.498;5.408;2023-05-19T06:37:25;0.20;;;0.20;;
19199;SDS011;9732;52.498;5.408;2023-05-19T06:39:52;0.10;;;0.10;;
19199;SDS011;9732;52.498;5.408;2023-05-19T06:42:19;0.20;;;0.20;;
19199;SDS011;9732;52.498;5.408;2023-05-19T06:44:47;0.20;;;0.20;;
19199;SDS011;9732;52.498;5.408;2023-05-19T06:47:14;0.20;;;0.20;;
19199;SDS011;9732;52.498;5.408;2023-05-19T06:49:43;0.20;;;0.20;;
19199;SDS011;9732;52.498;5.408;2023-05-19T06:52:14;0.20;;;0.20;;
19199;SDS011;9732;52.498;5.408;2023-05-19T06:54:42;0.20;;;0.20;;
19199;SDS011;9732;52.498;5.408;2023-05-19T06:57:09;0.20;;;0.20;;
19199;SDS011;9732;52.498;5.408;2023-05-19T06:59:36;0.20;;;0.20;;
19199;SDS011;9732;52.498;5.408;2023-05-19T07:02:05;0.20;;;0.20;;
19199;SDS011;9732;52.498;5.408;2023-05-19T07:04:35;0.20;;;0.20;;
19199;SDS011;9732;52.498;5.408;2023-05-19T07:07:03;0.20;;;0.20;;
19199;SDS011;9732;52.498;5.408;2023-05-19T07:09:30;0.20;;;0.20;;
19199;SDS011;9732;52.498;5.408;2023-05-19T07:11:58;0.20;;;0.20;;
19199;SDS011;9732;52.498;5.408;2023-05-19T07:14:25;0.20;;;0.20;;
19199;SDS011;9732;52.498;5.408;2023-05-19T07:16:52;0.20;;;0.20;;
19199;SDS011;9732;52.498;5.408;2023-05-19T07:19:19;0.10;;;0.10;;
19199;SDS011;9732;52.498;5.408;2023-05-19T07:21:49;0.20;;;0.20;;
19199;SDS011;9732;52.498;5.408;2023-05-19T07:24:17;0.20;;;0.20;;
19199;SDS011;9732;52.498;5.408;2023-05-19T07:26:45;0.20;;;0.20;;
19199;SDS011;9732;52.498;5.408;2023-05-19T07:29:13;0.20;;;0.20;;
19199;SDS011;9732;52.498;5.408;2023-05-19T07:31:40;0.20;;;0.20;;
19199;SDS011;9732;52.498;5.408;2023-05-19T07:34:06;0.20;;;0.20;;
19199;SDS011;9732;52.498;5.408;2023-05-19T07:36:33;0.13;;;0.13;;
19199;SDS011;9732;52.498;5.408;2023-05-19T07:39:00;0.20;;;0.20;;
19199;SDS011;9732;52.498;5.408;2023-05-19T07:41:28;0.10;;;0.10;;
19199;SDS011;9732;52.498;5.408;2023-05-19T07:43:59;0.10;;;0.10;;
19199;SDS011;9732;52.498;5.408;2023-05-19T07:46:27;0.20;;;0.20;;
19199;SDS011;9732;52.498;5.408;2023-05-19T07:48:54;0.20;;;0.20;;
19199;SDS011;9732;52.498;5.408;2023-05-19T07:51:21;0.10;;;0.10;;
19199;SDS011;9732;52.498;5.408;2023-05-19T07:53:48;0.10;;;0.10;;
19199;SDS011;9732;52.498;5.408;2023-05-19T07:56:15;0.10;;;0.10;;
19199;SDS011;9732;52.498;5.408;2023-05-19T07:58:42;0.10;;;0.10;;
19199;SDS011;9732;52.498;5.408;2023-05-19T08:01:09;0.20;;;0.20;;
19199;SDS011;9732;52.498;5.408;2023-05-19T08:03:39;0.10;;;0.10;;
19199;SDS011;9732;52.498;5.408;2023-05-19T08:06:06;0.15;;;0.15;;
19199;SDS011;9732;52.498;5.408;2023-05-19T08:08:33;0.10;;;0.10;;
19199;SDS011;9732;52.498;5.408;2023-05-19T08:11:01;0.13;;;0.13;;
19199;SDS011;9732;52.498;5.408;2023-05-19T08:13:28;0.10;;;0.10;;
19199;SDS011;9732;52.498;5.408;2023-05-19T08:15:55;0.10;;;0.10;;
19199;SDS011;9732;52.498;5.408;2023-05-19T08:18:24;0.10;;;0.10;;
19199;SDS011;9732;52.498;5.408;2023-05-19T08:20:52;0.20;;;0.20;;
19199;SDS011;9732;52.498;5.408;2023-05-19T08:23:21;0.10;;;0.10;;
19199;SDS011;9732;52.498;5.408;2023-05-19T08:25:49;0.10;;;0.10;;
19199;SDS011;9732;52.498;5.408;2023-05-19T08:28:16;0.10;;;0.10;;
19199;SDS011;9732;52.498;5.408;2023-05-19T08:30:42;0.10;;;0.10;;
19199;SDS011;9732;52.498;5.408;2023-05-19T08:33:10;0.20;;;0.20;;
19199;SDS011;9732;52.498;5.408;2023-05-19T08:35:37;0.10;;;0.10;;
19199;SDS011;9732;52.498;5.408;2023-05-19T08:38:05;0.20;;;0.20;;
19199;SDS011;9732;52.498;5.408;2023-05-19T08:40:32;0.10;;;0.10;;
19199;SDS011;9732;52.498;5.408;2023-05-19T08:43:03;0.10;;;0.10;;
19199;SDS011;9732;52.498;5.408;2023-05-19T08:45:30;0.10;;;0.10;;
19199;SDS011;9732;52.498;5.408;2023-05-19T08:47:58;0.10;;;0.10;;
19199;SDS011;9732;52.498;5.408;2023-05-19T08:50:26;0.10;;;0.10;;
19199;SDS011;9732;52.498;5.408;2023-05-19T08:52:57;0.10;;;0.10;;
19199;SDS011;9732;52.498;5.408;2023-05-19T08:55:32;0.10;;;0.10;;
19199;SDS011;9732;52.498;5.408;2023-05-19T08:58:05;0.10;;;0.10;;
19199;SDS011;9732;52.498;5.408;2023-05-19T09:00:33;0.10;;;0.10;;
19199;SDS011;9732;52.498;5.408;2023-05-19T09:02:59;0.10;;;0.10;;
19199;SDS011;9732;52.498;5.408;2023-05-19T09:05:27;0.10;;;0.10;;
19199;SDS011;9732;52.498;5.408;2023-05-19T09:07:54;0.10;;;0.10;;
19199;SDS011;9732;52.498;5.408;2023-05-19T09:10:21;0.20;;;0.20;;
19199;SDS011;9732;52.498;5.408;2023-05-19T09:12:49;0.10;;;0.10;;
19199;SDS011;9732;52.498;5.408;2023-05-19T09:15:16;0.10;;;0.10;;
19199;SDS011;9732;52.498;5.408;2023-05-19T09:17:44;0.10;;;0.10;;
19199;SDS011;9732;52.498;5.408;2023-05-19T09:20:12;0.10;;;0.10;;
19199;SDS011;9732;52.498;5.408;2023-05-19T09:22:41;0.10;;;0.10;;
19199;SDS011;9732;52.498;5.408;2023-05-19T09:25:18;0.10;;;0.10;;
19199;SDS011;9732;52.498;5.408;2023-05-19T09:27:45;0.00;;;0.00;;
19199;SDS011;9732;52.498;5.408;2023-05-19T09:30:15;0.05;;;0.05;;
19199;SDS011;9732;52.498;5.408;2023-05-19T09:32:42;0.00;;;0.00;;
19199;SDS011;9732;52.498;5.408;2023-05-19T09:35:09;0.00;;;0.00;;
19199;SDS011;9732;52.498;5.408;2023-05-19T09:37:38;0.10;;;0.10;;
19199;SDS011;9732;52.498;5.408;2023-05-19T09:40:06;0.10;;;0.10;;
19199;SDS011;9732;52.498;5.408;2023-05-19T09:42:35;0.00;;;0.00;;
19199;SDS011;9732;52.498;5.408;2023-05-19T09:45:03;0.10;;;0.10;;
19199;SDS011;9732;52.498;5.408;2023-05-19T09:47:35;0.10;;;0.10;;
19199;SDS011;9732;52.498;5.408;2023-05-19T09:50:03;0.00;;;0.00;;
19199;SDS011;9732;52.498;5.408;2023-05-19T09:52:33;0.00;;;0.00;;
19199;SDS011;9732;52.498;5.408;2023-05-19T09:55:01;0.00;;;0.00;;
19199;SDS011;9732;52.498;5.408;2023-05-19T09:57:32;0.00;;;0.00;;
19199;SDS011;9732;52.498;5.408;2023-05-19T10:00:01;0.00;;;0.00;;
19199;SDS011;9732;52.498;5.408;2023-05-19T10:02:37;0.00;;;0.00;;
19199;SDS011;9732;52.498;5.408;2023-05-19T10:05:08;0.00;;;0.00;;
19199;SDS011;9732;52.498;5.408;2023-05-19T10:07:41;0.00;;;0.00;;
19199;SDS011;9732;52.498;5.408;2023-05-19T10:10:11;0.00;;;0.00;;
19199;SDS011;9732;52.498;5.408;2023-05-19T10:12:39;0.00;;;0.00;;
19199;SDS011;9732;52.498;5.408;2023-05-19T10:15:07;0.00;;;0.00;;
19199;SDS011;9732;52.498;5.408;2023-05-19T10:17:39;0.00;;;0.00;;
19199;SDS011;9732;52.498;5.408;2023-05-19T10:20:08;0.00;;;0.00;;
19199;SDS011;9732;52.498;5.408;2023-05-19T10:22:36;0.00;;;0.00;;
19199;SDS011;9732;52.498;5.408;2023-05-19T10:25:03;0.00;;;0.00;;
19199;SDS011;9732;52.498;5.408;2023-05-19T10:27:32;0.00;;;0.00;;
19199;SDS011;9732;52.498;5.408;2023-05-19T10:30:05;0.00;;;0.00;;
19199;SDS011;9732;52.498;5.408;2023-05-19T10:32:34;0.00;;;0.00;;
19199;SDS011;9732;52.498;5.408;2023-05-19T10:38:20;0.00;;;0.00;;
19199;SDS011;9732;52.498;5.408;2023-05-19T10:40:56;0.00;;;0.00;;
19199;SDS011;9732;52.498;5.408;2023-05-19T10:46:22;0.00;;;0.00;;
19199;SDS011;9732;52.498;5.408;2023-05-19T10:48:51;0.00;;;0.00;;
19199;SDS011;9732;52.498;5.408;2023-05-19T10:51:18;0.00;;;0.00;;
19199;SDS011;9732;52.498;5.408;2023-05-19T10:53:46;0.00;;;0.00;;
19199;SDS011;9732;52.498;5.408;2023-05-19T10:56:26;0.00;;;0.00;;
19199;SDS011;9732;52.498;5.408;2023-05-19T10:58:55;0.00;;;0.00;;
19199;SDS011;9732;52.498;5.408;2023-05-19T11:01:22;0.00;;;0.00;;
19199;SDS011;9732;52.498;5.408;2023-05-19T11:03:56;0.00;;;0.00;;
19199;SDS011;9732;52.498;5.408;2023-05-19T11:06:24;0.00;;;0.00;;
19199;SDS011;9732;52.498;5.408;2023-05-19T11:08:54;0.00;;;0.00;;
19199;SDS011;9732;52.498;5.408;2023-05-19T11:11:25;0.00;;;0.00;;
19199;SDS011;9732;52.498;5.408;2023-05-19T11:14:09;0.00;;;0.00;;
19199;SDS011;9732;52.498;5.408;2023-05-19T11:16:37;0.00;;;0.00;;
19199;SDS011;9732;52.498;5.408;2023-05-19T11:19:07;0.00;;;0.00;;
19199;SDS011;9732;52.498;5.408;2023-05-19T11:21:40;0.00;;;0.00;;
19199;SDS011;9732;52.498;5.408;2023-05-19T11:24:09;0.00;;;0.00;;
19199;SDS011;9732;52.498;5.408;2023-05-19T11:29:46;0.00;;;0.00;;
19199;SDS011;9732;52.498;5.408;2023-05-19T11:32:14;0.00;;;0.00;;
19199;SDS011;9732;52.498;5.408;2023-05-19T11:34:43;0.00;;;0.00;;
19199;SDS011;9732;52.498;5.408;2023-05-19T11:37:12;0.00;;;0.00;;
19199;SDS011;9732;52.498;5.408;2023-05-19T11:39:42;0.00;;;0.00;;
19199;SDS011;9732;52.498;5.408;2023-05-19T11:42:11;0.00;;;0.00;;
19199;SDS011;9732;52.498;5.408;2023-05-19T11:44:38;0.00;;;0.00;;
19199;SDS011;9732;52.498;5.408;2023-05-19T11:47:06;0.00;;;0.00;;
19199;SDS011;9732;52.498;5.408;2023-05-19T11:49:34;0.00;;;0.00;;
19199;SDS011;9732;52.498;5.408;2023-05-19T11:52:01;0.00;;;0.00;;
19199;SDS011;9732;52.498;5.408;2023-05-19T11:54:29;0.00;;;0.00;;
19199;SDS011;9732;52.498;5.408;2023-05-19T11:57:00;0.00;;;0.00;;
19199;SDS011;9732;52.498;5.408;2023-05-19T11:59:28;0.00;;;0.00;;
19199;SDS011;9732;52.498;5.408;2023-05-19T12:01:56;0.00;;;0.00;;
19199;SDS011;9732;52.498;5.408;2023-05-19T12:04:23;0.00;;;0.00;;
19199;SDS011;9732;52.498;5.408;2023-05-19T12:06:50;0.00;;;0.00;;
19199;SDS011;9732;52.498;5.408;2023-05-19T12:09:18;0.00;;;0.00;;
19199;SDS011;9732;52.498;5.408;2023-05-19T12:11:48;0.00;;;0.00;;
19199;SDS011;9732;52.498;5.408;2023-05-19T12:14:17;0.00;;;0.00;;
19199;SDS011;9732;52.498;5.408;2023-05-19T12:16:44;0.00;;;0.00;;
19199;SDS011;9732;52.498;5.408;2023-05-19T12:19:11;0.00;;;0.00;;
19199;SDS011;9732;52.498;5.408;2023-05-19T12:21:38;0.00;;;0.00;;
19199;SDS011;9732;52.498;5.408;2023-05-19T12:24:06;0.00;;;0.00;;
19199;SDS011;9732;52.498;5.408;2023-05-19T12:26:33;0.00;;;0.00;;
19199;SDS011;9732;52.498;5.408;2023-05-19T12:29:01;0.00;;;0.00;;
19199;SDS011;9732;52.498;5.408;2023-05-19T12:31:34;0.00;;;0.00;;
19199;SDS011;9732;52.498;5.408;2023-05-19T12:34:02;0.00;;;0.00;;
19199;SDS011;9732;52.498;5.408;2023-05-19T12:36:30;0.00;;;0.00;;
19199;SDS011;9732;52.498;5.408;2023-05-19T12:38:57;0.00;;;0.00;;
19199;SDS011;9732;52.498;5.408;2023-05-19T12:41:24;0.00;;;0.00;;
19199;SDS011;9732;52.498;5.408;2023-05-19T12:43:53;0.00;;;0.00;;
19199;SDS011;9732;52.498;5.408;2023-05-19T12:46:21;0.00;;;0.00;;
19199;SDS011;9732;52.498;5.408;2023-05-19T12:48:51;0.00;;;0.00;;
19199;SDS011;9732;52.498;5.408;2023-05-19T12:51:18;0.00;;;0.00;;
19199;SDS011;9732;52.498;5.408;2023-05-19T12:53:45;0.00;;;0.00;;
19199;SDS011;9732;52.498;5.408;2023-05-19T12:56:15;0.00;;;0.00;;
19199;SDS011;9732;52.498;5.408;2023-05-19T12:58:42;0.00;;;0.00;;
19199;SDS011;9732;52.498;5.408;2023-05-19T13:01:14;0.00;;;0.00;;
19199;SDS011;9732;52.498;5.408;2023-05-19T13:03:42;0.00;;;0.00;;
19199;SDS011;9732;52.498;5.408;2023-05-19T13:06:11;0.00;;;0.00;;
19199;SDS011;9732;52.498;5.408;2023-05-19T13:08:38;0.00;;;0.00;;
19199;SDS011;9732;52.498;5.408;2023-05-19T13:11:06;0.00;;;0.00;;
19199;SDS011;9732;52.498;5.408;2023-05-19T13:13:32;0.00;;;0.00;;
19199;SDS011;9732;52.498;5.408;2023-05-19T13:15:59;0.00;;;0.00;;
19199;SDS011;9732;52.498;5.408;2023-05-19T13:18:26;0.00;;;0.00;;
19199;SDS011;9732;52.498;5.408;2023-05-19T13:20:56;0.00;;;0.00;;
19199;SDS011;9732;52.498;5.408;2023-05-19T13:23:24;0.00;;;0.00;;
19199;SDS011;9732;52.498;5.408;2023-05-19T13:25:51;0.00;;;0.00;;
19199;SDS011;9732;52.498;5.408;2023-05-19T13:28:18;0.00;;;0.00;;
19199;SDS011;9732;52.498;5.408;2023-05-19T13:30:45;0.00;;;0.00;;
19199;SDS011;9732;52.498;5.408;2023-05-19T13:33:13;0.00;;;0.00;;
19199;SDS011;9732;52.498;5.408;2023-05-19T13:35:40;0.00;;;0.00;;
19199;SDS011;9732;52.498;5.408;2023-05-19T13:38:07;0.00;;;0.00;;
19199;SDS011;9732;52.498;5.408;2023-05-19T13:40:41;0.00;;;0.00;;
19199;SDS011;9732;52.498;5.408;2023-05-19T13:43:11;0.00;;;0.00;;
19199;SDS011;9732;52.498;5.408;2023-05-19T13:45:38;0.00;;;0.00;;
19199;SDS011;9732;52.498;5.408;2023-05-19T13:48:06;0.00;;;0.00;;
19199;SDS011;9732;52.498;5.408;2023-05-19T13:50:35;0.00;;;0.00;;
19199;SDS011;9732;52.498;5.408;2023-05-19T13:53:04;0.00;;;0.00;;
19199;SDS011;9732;52.498;5.408;2023-05-19T13:55:31;0.00;;;0.00;;
19199;SDS011;9732;52.498;5.408;2023-05-19T13:57:59;0.00;;;0.00;;
19199;SDS011;9732;52.498;5.408;2023-05-19T14:00:27;0.00;;;0.00;;
19199;SDS011;9732;52.498;5.408;2023-05-19T14:02:54;0.00;;;0.00;;
19199;SDS011;9732;52.498;5.408;2023-05-19T14:05:21;0.00;;;0.00;;
19199;SDS011;9732;52.498;5.408;2023-05-19T14:07:48;0.00;;;0.00;;
19199;SDS011;9732;52.498;5.408;2023-05-19T14:10:14;0.00;;;0.00;;
19199;SDS011;9732;52.498;5.408;2023-05-19T14:12:41;0.00;;;0.00;;
19199;SDS011;9732;52.498;5.408;2023-05-19T14:15:10;0.00;;;0.00;;
19199;SDS011;9732;52.498;5.408;2023-05-19T14:17:38;0.00;;;0.00;;
19199;SDS011;9732;52.498;5.408;2023-05-19T14:20:05;0.00;;;0.00;;
19199;SDS011;9732;52.498;5.408;2023-05-19T14:22:33;0.00;;;0.00;;
19199;SDS011;9732;52.498;5.408;2023-05-19T14:25:00;0.00;;;0.00;;
19199;SDS011;9732;52.498;5.408;2023-05-19T14:27:27;0.00;;;0.00;;
19199;SDS011;9732;52.498;5.408;2023-05-19T14:29:54;0.00;;;0.00;;
19199;SDS011;9732;52.498;5.408;2023-05-19T14:32:23;0.00;;;0.00;;
19199;SDS011;9732;52.498;5.408;2023-05-19T14:34:50;0.00;;;0.00;;
19199;SDS011;9732;52.498;5.408;2023-05-19T14:37:17;0.00;;;0.00;;
19199;SDS011;9732;52.498;5.408;2023-05-19T14:39:47;0.00;;;0.00;;
19199;SDS011;9732;52.498;5.408;2023-05-19T14:42:14;0.00;;;0.00;;
19199;SDS011;9732;52.498;5.408;2023-05-19T14:44:41;0.00;;;0.00;;
19199;SDS011;9732;52.498;5.408;2023-05-19T14:47:08;0.00;;;0.00;;
19199;SDS011;9732;52.498;5.408;2023-05-19T14:49:36;0.00;;;0.00;;
19199;SDS011;9732;52.498;5.408;2023-05-19T14:52:03;0.00;;;0.00;;
19199;SDS011;9732;52.498;5.408;2023-05-19T14:54:30;0.00;;;0.00;;
19199;SDS011;9732;52.498;5.408;2023-05-19T14:56:56;0.00;;;0.00;;
19199;SDS011;9732;52.498;5.408;2023-05-19T14:59:23;0.00;;;0.00;;
19199;SDS011;9732;52.498;5.408;2023-05-19T15:01:50;0.00;;;0.00;;
19199;SDS011;9732;52.498;5.408;2023-05-19T15:04:16;0.00;;;0.00;;
19199;SDS011;9732;52.498;5.408;2023-05-19T15:06:45;0.00;;;0.00;;
19199;SDS011;9732;52.498;5.408;2023-05-19T15:09:11;0.00;;;0.00;;
19199;SDS011;9732;52.498;5.408;2023-05-19T15:11:38;0.00;;;0.00;;
19199;SDS011;9732;52.498;5.408;2023-05-19T15:14:05;0.00;;;0.00;;
19199;SDS011;9732;52.498;5.408;2023-05-19T15:16:32;0.00;;;0.00;;
19199;SDS011;9732;52.498;5.408;2023-05-19T15:18:59;0.00;;;0.00;;